Time;durP1;ratioP1;P1;durP2;ratioP2;P2;SDS_P1;SDS_P2;PMS_P1;PMS_P2;Temp;Humidity;BMP_temperature;BMP_pressure;BME280_temperature;BME280_humidity;BME280_pressure;Samples;Min_cycle;Max_cycle;Signal;HPM_P1;HPM_P2
2022/01/15 00:03:14;;;;;;;29.53;12.70;;;1.40;99.90;;;;;;10455056;28;20033;-86
2022/01/15 00:08:15;;;;;;;41.67;12.87;;;1.40;99.90;;;;;;10471151;28;20029;-87
2022/01/15 00:13:27;;;;;;;34.17;11.40;;;1.40;99.90;;;;;;10440541;28;20056;-87
2022/01/15 00:18:40;;;;;;;34.83;11.60;;;1.40;99.90;;;;;;10466821;28;20024;-87
2022/01/15 00:23:43;;;;;;;35.07;13.13;;;1.30;99.90;;;;;;10496847;28;20090;-87
2022/01/15 00:28:43;;;;;;;34.33;11.37;;;1.30;99.90;;;;;;10476461;28;20044;-87
2022/01/15 00:33:44;;;;;;;34.37;10.93;;;1.30;99.90;;;;;;10454393;28;20068;-87
2022/01/15 00:38:46;;;;;;;34.90;11.53;;;1.30;99.90;;;;;;10445395;28;20055;-86
2022/01/15 00:43:46;;;;;;;35.60;14.87;;;1.20;99.90;;;;;;10436686;28;20115;-87
2022/01/15 00:48:47;;;;;;;37.67;12.13;;;1.30;99.90;;;;;;10451604;28;20036;-87
2022/01/15 00:53:48;;;;;;;42.23;13.00;;;1.30;99.90;;;;;;10444323;28;20090;-90
2022/01/15 00:58:52;;;;;;;34.77;12.10;;;1.20;99.90;;;;;;10399954;28;20022;-88
2022/01/15 01:03:52;;;;;;;32.00;11.60;;;1.20;99.90;;;;;;10428021;28;20037;-87
2022/01/15 01:08:53;;;;;;;42.30;13.97;;;1.30;99.90;;;;;;10485646;28;20115;-86
2022/01/15 01:24:26;;;;;;;42.47;11.53;;;1.10;99.90;;;;;;10411372;28;20485;-88
2022/01/15 01:29:48;;;;;;;34.03;12.33;;;1.20;99.90;;;;;;10412516;28;20400;-87
2022/01/15 01:34:49;;;;;;;49.13;13.87;;;1.10;99.90;;;;;;10451148;28;20032;-87
2022/01/15 01:39:51;;;;;;;27.30;10.77;;;1.10;99.90;;;;;;10451877;28;20059;-87
2022/01/15 01:45:10;;;;;;;36.67;12.83;;;1.10;99.90;;;;;;10451939;28;20123;-87
2022/01/15 01:50:11;;;;;;;39.10;12.97;;;1.00;99.90;;;;;;10450689;28;20041;-87
2022/01/15 01:55:12;;;;;;;32.77;11.43;;;0.90;99.90;;;;;;10433030;28;20167;-87
2022/01/15 02:00:16;;;;;;;38.97;12.50;;;0.80;99.90;;;;;;10451362;28;20113;-86
2022/01/15 02:05:18;;;;;;;42.50;11.83;;;0.80;99.90;;;;;;10447317;28;20040;-87
2022/01/15 02:10:20;;;;;;;36.57;11.30;;;0.70;99.90;;;;;;10443513;28;20059;-87
2022/01/15 02:15:23;;;;;;;36.00;12.10;;;0.70;99.90;;;;;;10471827;28;20081;-86
2022/01/15 02:25:48;;;;;;;34.50;11.87;;;0.60;99.90;;;;;;10476685;28;20103;-87
2022/01/15 02:31:16;;;;;;;37.13;12.37;;;0.50;99.90;;;;;;10448745;28;20052;-89
2022/01/15 02:36:19;;;;;;;34.57;10.87;;;0.50;99.90;;;;;;10430642;28;20037;-87
2022/01/15 02:41:36;;;;;;;34.33;12.93;;;0.50;99.90;;;;;;10432447;28;20024;-88
2022/01/15 02:48:00;;;;;;;30.97;11.13;;;0.40;99.90;;;;;;10457986;28;20064;-88
2022/01/15 02:51:58;;;;;;;37.03;11.63;;;0.40;99.90;;;;;;10449596;28;20036;-87
2022/01/15 02:56:58;;;;;;;34.33;12.40;;;0.40;99.90;;;;;;10430387;28;20025;-88
2022/01/15 03:01:59;;;;;;;39.17;11.00;;;0.40;99.90;;;;;;10431403;28;20033;-88
2022/01/15 03:07:00;;;;;;;36.23;12.43;;;0.40;99.90;;;;;;10448767;28;20094;-87
2022/01/15 03:12:02;;;;;;;35.37;13.13;;;0.30;99.90;;;;;;10477703;28;20061;-87
2022/01/15 03:17:03;;;;;;;29.90;11.43;;;0.30;99.90;;;;;;10442085;28;20037;-87
2022/01/15 03:22:04;;;;;;;31.03;11.77;;;0.30;99.90;;;;;;10450229;28;20086;-90
2022/01/15 03:27:05;;;;;;;31.37;11.70;;;0.30;99.90;;;;;;10430762;28;20135;-88
2022/01/15 03:32:06;;;;;;;39.27;11.17;;;0.30;99.90;;;;;;10447633;28;20132;-87
2022/01/15 03:37:07;;;;;;;35.40;10.40;;;0.30;99.90;;;;;;10431809;28;20075;-88
2022/01/15 03:42:11;;;;;;;52.47;17.33;;;0.30;99.90;;;;;;10453707;28;20037;-87
2022/01/15 03:47:13;;;;;;;46.87;15.60;;;0.40;99.90;;;;;;10459011;28;20044;-88
2022/01/15 03:52:14;;;;;;;37.40;14.67;;;0.30;99.90;;;;;;10455849;28;20039;-89
2022/01/15 03:57:14;;;;;;;30.13;10.03;;;0.30;99.90;;;;;;10483422;28;20457;-91
2022/01/15 04:02:15;;;;;;;30.40;9.80;;;0.30;99.90;;;;;;10479467;28;20504;-90
2022/01/15 04:07:16;;;;;;;33.60;11.03;;;0.20;99.90;;;;;;10458396;28;20041;-88
2022/01/15 04:12:17;;;;;;;46.63;14.73;;;0.20;99.90;;;;;;10456572;28;20052;-89
2022/01/15 04:17:17;;;;;;;42.63;14.97;;;0.30;99.90;;;;;;10459996;28;20381;-90
2022/01/15 04:22:18;;;;;;;49.53;18.30;;;0.30;99.90;;;;;;10458176;28;20036;-87
2022/01/15 04:27:22;;;;;;;50.37;17.30;;;0.30;99.90;;;;;;10454421;28;20037;-87
2022/01/15 04:32:22;;;;;;;42.73;16.20;;;0.30;99.90;;;;;;10442996;28;20035;-87
2022/01/15 04:37:24;;;;;;;42.37;14.73;;;0.30;99.90;;;;;;10455646;28;20029;-91
2022/01/15 04:42:26;;;;;;;48.50;17.37;;;0.20;99.90;;;;;;10454308;28;20424;-86
2022/01/15 04:47:26;;;;;;;54.40;18.83;;;0.20;99.90;;;;;;10435562;28;20103;-87
2022/01/15 04:52:27;;;;;;;36.20;14.17;;;0.10;99.90;;;;;;10436075;28;20106;-87
2022/01/15 04:57:29;;;;;;;60.20;21.37;;;0.10;99.90;;;;;;10454226;28;20025;-87
2022/01/15 05:02:29;;;;;;;41.60;18.27;;;0.10;99.90;;;;;;10456112;28;20036;-87
2022/01/15 05:07:30;;;;;;;43.67;16.83;;;0.00;99.90;;;;;;10495694;28;20071;-88
2022/01/15 05:12:39;;;;;;;47.37;18.47;;;0.10;99.90;;;;;;10451323;28;20047;-89
2022/01/15 05:17:41;;;;;;;50.37;20.43;;;0.10;99.90;;;;;;10434516;28;20037;-89
2022/01/15 05:22:42;;;;;;;63.10;22.93;;;0.10;99.90;;;;;;10435740;28;20805;-86
2022/01/15 05:27:46;;;;;;;55.40;20.30;;;0.10;99.90;;;;;;10457234;28;20082;-88
2022/01/15 05:32:47;;;;;;;62.17;24.77;;;0.10;99.90;;;;;;10488078;28;20115;-87
2022/01/15 05:37:48;;;;;;;63.80;24.60;;;0.10;99.90;;;;;;10493060;28;20034;-88
2022/01/15 05:42:48;;;;;;;49.53;20.33;;;0.00;99.90;;;;;;10468712;28;20149;-87
2022/01/15 05:47:49;;;;;;;56.70;23.70;;;0.10;99.90;;;;;;10454995;28;20052;-89
2022/01/15 05:52:50;;;;;;;44.47;17.37;;;0.10;99.90;;;;;;10433076;28;20040;-86
2022/01/15 05:57:50;;;;;;;43.33;15.77;;;0.10;99.90;;;;;;10436003;28;20029;-88
2022/01/15 06:02:51;;;;;;;51.67;20.93;;;0.10;99.90;;;;;;10431792;28;20032;-86
2022/01/15 06:07:52;;;;;;;48.20;19.03;;;0.10;99.90;;;;;;10451151;28;20121;-87
2022/01/15 06:12:52;;;;;;;46.43;17.13;;;0.10;99.90;;;;;;10437540;28;20124;-86
2022/01/15 06:17:53;;;;;;;44.03;16.00;;;0.10;99.90;;;;;;10449872;28;20029;-83
2022/01/15 06:22:54;;;;;;;57.87;18.90;;;0.10;99.90;;;;;;10468441;28;20029;-86
2022/01/15 06:27:54;;;;;;;63.97;23.83;;;0.10;99.90;;;;;;10454094;28;20536;-88
2022/01/15 06:32:55;;;;;;;69.97;25.83;;;0.00;99.90;;;;;;10484554;28;20024;-85
2022/01/15 06:37:55;;;;;;;62.43;23.37;;;0.10;99.90;;;;;;10437898;28;20544;-86
2022/01/15 06:42:56;;;;;;;56.87;23.50;;;0.10;99.90;;;;;;10462270;28;20172;-87
2022/01/15 06:47:57;;;;;;;59.13;24.00;;;0.10;99.90;;;;;;10430968;28;20044;-88
2022/01/15 06:52:58;;;;;;;50.60;19.93;;;0.00;99.90;;;;;;10450379;28;20029;-90
2022/01/15 06:57:59;;;;;;;55.67;21.00;;;0.00;99.90;;;;;;10459054;28;20033;-86
2022/01/15 07:03:02;;;;;;;71.43;28.00;;;-0.10;99.90;;;;;;10490201;28;20403;-87
2022/01/15 07:08:04;;;;;;;79.17;31.60;;;-0.10;99.90;;;;;;10473666;28;20670;-86
2022/01/15 07:13:05;;;;;;;78.17;33.20;;;-0.10;99.90;;;;;;10449075;28;20481;-91
2022/01/15 07:18:06;;;;;;;80.80;33.43;;;0.00;99.90;;;;;;10436506;28;20025;-85
2022/01/15 07:23:07;;;;;;;115.33;43.37;;;-0.10;99.90;;;;;;10456989;28;20039;-86
2022/01/15 07:28:08;;;;;;;108.77;43.30;;;-0.10;99.90;;;;;;10458029;28;20376;-85
2022/01/15 07:33:09;;;;;;;86.77;35.10;;;-0.10;99.90;;;;;;10470240;28;20029;-86
2022/01/15 07:38:12;;;;;;;240.83;131.17;;;0.00;99.90;;;;;;10457540;28;20127;-85
2022/01/15 07:43:14;;;;;;;117.93;51.70;;;0.00;99.90;;;;;;10438785;28;20033;-86
2022/01/15 07:48:15;;;;;;;142.03;55.83;;;0.00;99.90;;;;;;10437918;28;20091;-86
2022/01/15 07:53:15;;;;;;;116.20;49.33;;;0.00;99.90;;;;;;10455657;28;20095;-85
2022/01/15 07:58:16;;;;;;;130.43;54.13;;;0.00;99.90;;;;;;10460820;28;20128;-89
2022/01/15 08:03:17;;;;;;;103.23;41.67;;;0.00;99.90;;;;;;10443178;28;20036;-86
2022/01/15 08:08:18;;;;;;;134.13;53.10;;;0.20;99.90;;;;;;10497445;28;20033;-90
2022/01/15 08:13:19;;;;;;;70.17;28.47;;;0.30;99.90;;;;;;10476834;28;20052;-85
2022/01/15 08:18:21;;;;;;;75.10;27.63;;;0.50;99.90;;;;;;10437147;28;20031;-88
2022/01/15 08:23:22;;;;;;;45.80;19.73;;;0.60;99.90;;;;;;10454961;28;20063;-89
2022/01/15 08:28:23;;;;;;;52.20;18.53;;;0.80;99.90;;;;;;10441546;28;20688;-89
2022/01/15 08:33:24;;;;;;;59.20;21.60;;;0.90;99.90;;;;;;10436606;28;20136;-88
2022/01/15 08:38:25;;;;;;;39.03;13.20;;;1.00;99.90;;;;;;10453949;28;20029;-87
2022/01/15 08:43:25;;;;;;;54.47;20.43;;;1.10;99.90;;;;;;10436128;28;20029;-88
2022/01/15 08:48:39;;;;;;;27.43;10.07;;;1.20;99.90;;;;;;10433096;28;20032;-90
2022/01/15 08:53:40;;;;;;;79.17;29.50;;;1.20;99.90;;;;;;10437628;28;20036;-89
2022/01/15 08:58:40;;;;;;;83.97;32.03;;;1.30;99.90;;;;;;10432843;28;20384;-86
2022/01/15 09:03:42;;;;;;;69.33;26.20;;;1.40;99.90;;;;;;10462290;28;20036;-86
2022/01/15 09:09:01;;;;;;;59.53;23.13;;;1.40;99.90;;;;;;10450686;28;20040;-91
2022/01/15 09:14:05;;;;;;;31.30;12.60;;;1.50;99.90;;;;;;10454150;28;20065;-91
2022/01/15 09:19:06;;;;;;;36.83;15.30;;;1.70;99.90;;;;;;10434281;28;20029;-87
2022/01/15 09:24:07;;;;;;;41.70;17.83;;;1.90;99.90;;;;;;10451766;28;20032;-91
2022/01/15 09:34:28;;;;;;;62.77;24.63;;;2.20;99.90;;;;;;10439748;28;20504;-86
2022/01/15 09:39:30;;;;;;;30.03;9.47;;;2.40;99.90;;;;;;10423253;28;20029;-85
2022/01/15 09:44:32;;;;;;;51.73;21.10;;;2.50;99.90;;;;;;10466114;28;20033;-84
2022/01/15 09:49:33;;;;;;;48.53;20.93;;;2.60;99.90;;;;;;10453238;28;20155;-85
2022/01/15 09:54:34;;;;;;;41.83;18.43;;;2.60;99.90;;;;;;10442715;28;20024;-84
2022/01/15 09:59:36;;;;;;;66.50;29.00;;;2.80;99.90;;;;;;10457189;28;20033;-86
2022/01/15 10:04:36;;;;;;;44.77;16.43;;;2.80;99.90;;;;;;10455039;28;20033;-86
2022/01/15 10:09:37;;;;;;;51.27;22.40;;;2.80;99.90;;;;;;10449200;28;20056;-86
2022/01/15 10:14:41;;;;;;;27.90;10.67;;;2.80;99.90;;;;;;10429194;28;20054;-84
2022/01/15 10:19:42;;;;;;;64.30;23.87;;;2.80;99.90;;;;;;10445285;28;20040;-82
2022/01/15 10:24:50;;;;;;;35.13;13.03;;;2.80;99.90;;;;;;10455394;28;20048;-82
2022/01/15 10:29:54;;;;;;;56.70;25.37;;;2.80;99.90;;;;;;10449267;28;20029;-84
2022/01/15 10:34:56;;;;;;;47.73;18.73;;;2.80;99.90;;;;;;10454810;28;20033;-84
2022/01/15 10:40:06;;;;;;;36.90;15.23;;;3.00;99.90;;;;;;10455107;28;20025;-84
2022/01/15 10:45:13;;;;;;;30.37;12.97;;;3.00;99.90;;;;;;10450001;28;20040;-82
2022/01/15 10:50:26;;;;;;;42.17;17.43;;;3.10;99.90;;;;;;10431918;28;20112;-84
2022/01/15 10:55:29;;;;;;;37.47;14.17;;;3.10;99.90;;;;;;10450635;28;20037;-84
2022/01/15 11:00:36;;;;;;;44.27;16.73;;;3.10;99.90;;;;;;10427260;28;20029;-84
2022/01/15 11:05:39;;;;;;;42.13;19.40;;;3.10;99.90;;;;;;10446227;28;20063;-85
2022/01/15 11:10:52;;;;;;;54.70;22.93;;;3.00;99.90;;;;;;10463725;28;20021;-84
2022/01/15 11:16:00;;;;;;;37.10;14.17;;;3.20;99.90;;;;;;10437950;28;20396;-85
2022/01/15 11:21:04;;;;;;;53.40;24.00;;;3.40;99.90;;;;;;10419916;28;20033;-84
2022/01/15 11:26:09;;;;;;;55.60;23.60;;;3.30;99.90;;;;;;10456763;28;20033;-84
2022/01/15 11:31:20;;;;;;;53.20;22.07;;;3.30;99.90;;;;;;10451727;28;20017;-84
2022/01/15 11:36:31;;;;;;;40.93;16.30;;;3.50;99.90;;;;;;10423660;28;20056;-84
2022/01/15 11:41:31;;;;;;;45.43;20.23;;;3.50;99.90;;;;;;10408610;28;20069;-84
2022/01/15 11:46:43;;;;;;;52.37;18.13;;;3.50;99.90;;;;;;10436913;28;20178;-84
2022/01/15 11:51:44;;;;;;;54.00;21.77;;;3.60;99.90;;;;;;10432594;28;20017;-82
2022/01/15 11:56:46;;;;;;;52.37;20.93;;;3.50;99.90;;;;;;10418265;28;20036;-84
2022/01/15 12:01:48;;;;;;;40.80;17.03;;;3.50;99.90;;;;;;10440084;28;20033;-84
2022/01/15 12:07:01;;;;;;;49.23;18.27;;;3.50;99.90;;;;;;10425264;28;20042;-84
2022/01/15 12:17:37;;;;;;;45.80;15.93;;;3.60;99.90;;;;;;10433018;28;20098;-84
2022/01/15 12:22:43;;;;;;;66.13;26.43;;;3.70;99.90;;;;;;10434784;28;20112;-85
2022/01/15 12:28:21;;;;;;;49.07;20.87;;;3.90;99.90;;;;;;10417897;28;20052;-86
2022/01/15 12:33:22;;;;;;;37.37;12.83;;;4.10;99.90;;;;;;10351697;28;20048;-86
2022/01/15 12:38:28;;;;;;;63.10;25.00;;;4.10;99.90;;;;;;10433978;28;20025;-84
2022/01/15 12:43:30;;;;;;;48.30;16.90;;;4.00;99.90;;;;;;10433218;28;20038;-84
2022/01/15 12:48:33;;;;;;;62.50;23.90;;;3.90;99.90;;;;;;10441585;28;20436;-85
2022/01/15 12:53:40;;;;;;;87.47;33.27;;;3.90;99.90;;;;;;10442570;28;20029;-86
2022/01/15 12:58:42;;;;;;;95.00;34.47;;;3.90;99.90;;;;;;10416217;28;20028;-86
2022/01/15 13:03:42;;;;;;;87.20;30.97;;;4.10;99.90;;;;;;10450106;28;20041;-86
2022/01/15 13:08:44;;;;;;;70.13;27.77;;;4.10;99.90;;;;;;10433785;28;20036;-84
2022/01/15 13:13:53;;;;;;;43.33;17.17;;;4.00;99.90;;;;;;10431117;28;20041;-84
2022/01/15 13:18:58;;;;;;;40.97;13.90;;;4.00;99.90;;;;;;10450815;28;20056;-85
2022/01/15 13:24:02;;;;;;;82.67;31.10;;;3.90;99.90;;;;;;10429151;28;20033;-85
2022/01/15 13:29:07;;;;;;;82.23;32.60;;;3.90;99.90;;;;;;10417737;28;20029;-85
2022/01/15 13:34:13;;;;;;;59.90;19.97;;;3.90;99.90;;;;;;10425013;28;20033;-89
2022/01/15 13:39:16;;;;;;;34.03;13.73;;;3.80;99.90;;;;;;10436911;28;20032;-86
2022/01/15 13:44:20;;;;;;;104.23;36.03;;;3.70;99.90;;;;;;10446063;28;20481;-87
2022/01/15 13:49:35;;;;;;;63.23;24.53;;;3.70;99.90;;;;;;10447135;28;20565;-86
2022/01/15 13:54:37;;;;;;;97.00;35.00;;;3.50;99.90;;;;;;10430273;28;20021;-87
2022/01/15 13:59:40;;;;;;;95.23;33.90;;;3.50;99.90;;;;;;10448105;28;20031;-86
2022/01/15 14:04:41;;;;;;;91.43;39.13;;;3.40;99.90;;;;;;10448311;28;20044;-85
2022/01/15 14:09:46;;;;;;;77.47;31.30;;;3.30;99.90;;;;;;10430958;28;20082;-87
2022/01/15 14:15:03;;;;;;;90.80;33.70;;;3.20;99.90;;;;;;10447243;28;20437;-85
2022/01/15 14:20:17;;;;;;;78.00;31.37;;;3.10;99.90;;;;;;10425831;28;20040;-88
2022/01/15 14:25:26;;;;;;;76.60;31.17;;;3.10;99.90;;;;;;10446677;28;20182;-85
2022/01/15 14:30:28;;;;;;;131.20;57.90;;;3.00;99.90;;;;;;10423085;28;20409;-86
2022/01/15 14:35:30;;;;;;;98.07;44.03;;;2.90;99.90;;;;;;10429054;28;20028;-87
2022/01/15 14:40:30;;;;;;;97.03;38.07;;;2.80;99.90;;;;;;10430472;28;20025;-86
2022/01/15 14:45:31;;;;;;;136.33;57.93;;;2.70;99.90;;;;;;10428166;28;20036;-85
2022/01/15 14:50:32;;;;;;;233.87;99.27;;;2.60;99.90;;;;;;10450017;28;20095;-87
2022/01/15 14:55:33;;;;;;;237.80;107.33;;;2.50;99.90;;;;;;10448298;28;20491;-86
2022/01/15 15:00:33;;;;;;;246.37;111.83;;;2.30;99.90;;;;;;10429586;28;20025;-86
2022/01/15 15:05:34;;;;;;;186.53;78.57;;;2.20;99.90;;;;;;10430237;28;20041;-86
2022/01/15 15:10:35;;;;;;;121.57;46.47;;;2.00;99.90;;;;;;10439522;28;20021;-85
2022/01/15 15:15:37;;;;;;;130.27;48.50;;;1.80;99.90;;;;;;10447000;28;20053;-85
2022/01/15 15:20:37;;;;;;;98.03;35.77;;;1.50;99.90;;;;;;10448129;28;20021;-87
2022/01/15 15:25:39;;;;;;;99.33;40.33;;;1.20;99.90;;;;;;10447956;28;20484;-88
2022/01/15 15:30:42;;;;;;;88.43;33.87;;;0.90;99.90;;;;;;10446373;28;20116;-87
2022/01/15 15:35:42;;;;;;;121.80;47.77;;;0.80;99.90;;;;;;10447261;28;20033;-86
2022/01/15 15:40:46;;;;;;;121.13;48.83;;;0.50;99.90;;;;;;10454272;28;20472;-88
2022/01/15 15:45:49;;;;;;;137.23;57.50;;;0.30;99.90;;;;;;10449274;28;20021;-87
2022/01/15 15:50:50;;;;;;;149.03;61.83;;;0.20;99.90;;;;;;10433255;28;20032;-87
2022/01/15 15:55:51;;;;;;;179.80;81.60;;;0.00;99.90;;;;;;10446864;28;20033;-86
2022/01/15 16:00:52;;;;;;;198.80;81.47;;;-0.10;99.90;;;;;;10445360;28;20032;-87
2022/01/15 16:05:53;;;;;;;214.07;97.87;;;-0.10;99.90;;;;;;10452041;28;20047;-86
2022/01/15 16:10:54;;;;;;;252.50;105.37;;;-0.10;99.90;;;;;;10429888;28;20048;-87
2022/01/15 16:15:54;;;;;;;206.27;87.90;;;-0.20;99.90;;;;;;10435462;28;20147;-86
2022/01/15 16:20:55;;;;;;;300.10;133.17;;;-0.20;99.90;;;;;;10452070;28;20686;-85
2022/01/15 16:25:55;;;;;;;251.20;115.90;;;-0.30;99.90;;;;;;10452566;28;20045;-86
2022/01/15 16:31:00;;;;;;;300.57;134.87;;;-0.40;99.90;;;;;;10449676;28;20021;-86
2022/01/15 16:36:01;;;;;;;284.23;124.47;;;-0.40;99.90;;;;;;10452955;28;20033;-86
2022/01/15 16:41:03;;;;;;;271.47;118.73;;;-0.50;99.90;;;;;;10454718;28;20524;-83
2022/01/15 16:46:04;;;;;;;299.20;135.93;;;-0.60;99.90;;;;;;10451612;28;20041;-83
2022/01/15 16:51:05;;;;;;;291.53;134.20;;;-0.60;99.90;;;;;;10448551;28;20032;-84
2022/01/15 16:56:06;;;;;;;346.47;163.07;;;-0.80;99.90;;;;;;10436868;28;20031;-83
2022/01/15 17:01:06;;;;;;;389.70;190.77;;;-0.80;99.90;;;;;;10433686;28;20376;-83
2022/01/15 17:06:07;;;;;;;426.90;215.93;;;-0.80;99.90;;;;;;10453200;28;20043;-84
2022/01/15 17:11:08;;;;;;;495.93;264.70;;;-0.90;99.90;;;;;;10449935;28;20075;-84
2022/01/15 17:16:09;;;;;;;558.00;297.43;;;-0.90;99.90;;;;;;10447954;28;20524;-88
2022/01/15 17:21:10;;;;;;;506.00;272.23;;;-1.00;99.90;;;;;;10429785;28;20041;-85
2022/01/15 17:26:11;;;;;;;600.57;299.97;;;-1.00;99.90;;;;;;10449529;28;20072;-85
2022/01/15 17:31:11;;;;;;;689.73;333.37;;;-1.10;99.90;;;;;;10448357;28;20113;-86
2022/01/15 17:36:12;;;;;;;611.33;301.97;;;-1.10;99.90;;;;;;10449201;28;20029;-84
2022/01/15 17:41:14;;;;;;;573.03;306.13;;;-1.20;99.90;;;;;;10449505;28;20113;-86
2022/01/15 17:46:15;;;;;;;481.57;238.27;;;-1.20;99.90;;;;;;10430586;28;20033;-85
2022/01/15 17:51:16;;;;;;;404.20;199.17;;;-1.20;99.90;;;;;;10446998;28;20029;-85
2022/01/15 17:56:16;;;;;;;353.83;168.03;;;-1.20;99.90;;;;;;10450686;28;20028;-84
2022/01/15 18:01:17;;;;;;;273.33;124.57;;;-1.30;99.90;;;;;;10446701;28;20036;-85
2022/01/15 18:06:18;;;;;;;310.50;129.33;;;-1.30;99.90;;;;;;10450042;28;20044;-84
2022/01/15 18:11:21;;;;;;;222.33;99.90;;;-1.30;99.90;;;;;;10447408;28;20025;-84
2022/01/15 18:16:21;;;;;;;205.57;90.83;;;-1.30;99.90;;;;;;10430761;28;20396;-85
2022/01/15 18:21:22;;;;;;;276.60;117.47;;;-1.30;99.90;;;;;;10429807;28;20029;-85
2022/01/15 18:26:23;;;;;;;262.60;116.30;;;-1.30;99.90;;;;;;10448218;28;20512;-85
2022/01/15 18:31:24;;;;;;;257.23;116.50;;;-1.40;99.90;;;;;;10444616;28;20060;-86
2022/01/15 18:36:25;;;;;;;304.83;129.53;;;-1.40;99.90;;;;;;10444662;28;20033;-86
2022/01/15 18:41:26;;;;;;;358.27;155.77;;;-1.30;99.90;;;;;;10449516;28;20080;-85
2022/01/15 18:46:27;;;;;;;311.23;133.57;;;-1.20;99.90;;;;;;10449133;28;20171;-85
2022/01/15 18:51:27;;;;;;;281.20;117.53;;;-1.10;99.90;;;;;;10449014;28;20079;-87
2022/01/15 18:56:28;;;;;;;276.07;116.93;;;-1.00;99.90;;;;;;10447954;28;20044;-85
2022/01/15 19:01:30;;;;;;;207.40;90.20;;;-1.00;99.90;;;;;;10430616;28;20025;-86
2022/01/15 19:06:31;;;;;;;170.67;68.17;;;-1.00;99.90;;;;;;10448622;28;20060;-84
2022/01/15 19:11:32;;;;;;;165.60;59.53;;;-1.10;99.90;;;;;;10449814;28;20053;-87
2022/01/15 19:16:33;;;;;;;137.77;55.80;;;-1.00;99.90;;;;;;10456569;28;20385;-85
2022/01/15 19:21:33;;;;;;;138.40;55.03;;;-1.00;99.90;;;;;;10456344;28;20063;-85
2022/01/15 19:26:36;;;;;;;160.23;67.40;;;-1.00;99.90;;;;;;10456903;28;20039;-87
2022/01/15 19:31:37;;;;;;;170.20;67.67;;;-1.00;99.90;;;;;;10455652;28;20036;-85
2022/01/15 19:36:38;;;;;;;176.90;67.87;;;-1.00;99.90;;;;;;10456665;28;20044;-86
2022/01/15 19:41:39;;;;;;;245.10;99.70;;;-0.90;99.90;;;;;;10457007;28;20044;-84
2022/01/15 19:46:40;;;;;;;301.60;124.83;;;-0.90;99.90;;;;;;10453920;28;20037;-85
2022/01/15 19:51:40;;;;;;;319.07;130.77;;;-0.80;99.90;;;;;;10456339;28;20535;-85
2022/01/15 19:56:41;;;;;;;332.90;145.47;;;-0.80;99.90;;;;;;10437971;28;20029;-85
2022/01/15 20:01:42;;;;;;;428.13;167.07;;;-0.70;99.90;;;;;;10454651;28;20032;-88
2022/01/15 20:06:43;;;;;;;366.63;146.67;;;-0.70;99.90;;;;;;10435936;28;20041;-87
2022/01/15 20:11:44;;;;;;;346.53;129.53;;;-0.60;99.90;;;;;;10454682;28;20057;-86
2022/01/15 20:16:45;;;;;;;368.40;128.17;;;-0.50;99.90;;;;;;10453634;28;20029;-85
2022/01/15 20:21:46;;;;;;;311.17;120.63;;;-0.50;99.90;;;;;;10454983;28;20033;-86
2022/01/15 20:26:46;;;;;;;303.70;114.83;;;-0.40;99.90;;;;;;10435826;28;20039;-87
2022/01/15 20:31:47;;;;;;;346.03;121.47;;;-0.40;99.90;;;;;;10434871;28;20025;-86
2022/01/15 20:36:52;;;;;;;333.97;117.63;;;-0.30;99.90;;;;;;10454028;28;20033;-86
2022/01/15 20:41:55;;;;;;;330.93;105.37;;;-0.30;99.90;;;;;;10448805;28;20044;-85
2022/01/15 20:46:56;;;;;;;288.73;102.43;;;-0.30;99.90;;;;;;10443371;28;20029;-86
2022/01/15 20:51:57;;;;;;;290.43;106.10;;;-0.20;99.90;;;;;;10411684;28;20053;-87
2022/01/15 20:56:58;;;;;;;330.77;103.00;;;-0.20;99.90;;;;;;10432198;28;20017;-87
2022/01/15 21:01:59;;;;;;;241.20;80.33;;;-0.20;99.90;;;;;;10428828;28;20419;-88
2022/01/15 21:06:59;;;;;;;242.40;83.77;;;-0.30;99.90;;;;;;10433616;28;20506;-88
2022/01/15 21:12:00;;;;;;;230.53;80.10;;;-0.30;99.90;;;;;;10433956;28;20059;-88
2022/01/15 21:17:01;;;;;;;335.53;102.17;;;-0.40;99.90;;;;;;10434429;28;20067;-87
2022/01/15 21:22:02;;;;;;;269.60;92.13;;;-0.40;99.90;;;;;;10452508;28;20075;-89
2022/01/15 21:27:03;;;;;;;276.73;85.13;;;-0.40;99.90;;;;;;10434346;28;20128;-88
2022/01/15 21:32:05;;;;;;;228.80;71.90;;;-0.40;99.90;;;;;;10434201;28;20033;-87
2022/01/15 21:37:05;;;;;;;211.70;59.47;;;-0.40;99.90;;;;;;10433546;28;20029;-86
2022/01/15 21:42:06;;;;;;;190.13;58.10;;;-0.40;99.90;;;;;;10434150;28;20450;-87
2022/01/15 21:47:07;;;;;;;262.97;70.50;;;-0.30;99.90;;;;;;10424143;28;20090;-85
2022/01/15 21:52:10;;;;;;;284.60;71.77;;;-0.30;99.90;;;;;;10443773;28;20429;-86
2022/01/15 21:57:11;;;;;;;328.00;80.73;;;-0.40;99.90;;;;;;10419850;28;20497;-87
2022/01/15 22:02:12;;;;;;;266.50;72.63;;;-0.40;99.90;;;;;;10423847;28;20567;-87
2022/01/15 22:07:13;;;;;;;305.57;73.27;;;-0.40;99.90;;;;;;10448394;28;20079;-88
2022/01/15 22:12:27;;;;;;;246.97;77.90;;;-0.50;99.90;;;;;;10428826;28;20098;-88
2022/01/15 22:17:28;;;;;;;286.90;76.43;;;-0.50;99.90;;;;;;10446562;28;20032;-88
2022/01/15 22:22:29;;;;;;;283.60;70.33;;;-0.60;99.90;;;;;;10448099;28;20036;-90
2022/01/15 22:27:29;;;;;;;401.20;93.73;;;-0.60;99.90;;;;;;10426893;28;20480;-89
2022/01/15 22:32:30;;;;;;;398.43;111.73;;;-0.60;99.90;;;;;;10431373;28;20029;-89
2022/01/15 22:37:31;;;;;;;372.17;97.10;;;-0.60;99.90;;;;;;10431678;28;20469;-86
2022/01/15 22:42:32;;;;;;;373.70;109.47;;;-0.60;99.90;;;;;;10443536;28;20122;-88
2022/01/15 22:47:33;;;;;;;344.47;108.80;;;-0.50;99.90;;;;;;10430261;28;20040;-87
2022/01/15 22:52:33;;;;;;;291.60;101.90;;;-0.60;99.90;;;;;;10449149;28;20079;-88
2022/01/15 22:57:34;;;;;;;385.97;123.93;;;-0.60;99.90;;;;;;10448028;28;20025;-88
2022/01/15 23:02:35;;;;;;;356.53;115.43;;;-0.60;99.90;;;;;;10448284;28;20028;-86
2022/01/15 23:07:36;;;;;;;294.50;106.03;;;-0.50;99.90;;;;;;10430923;28;20052;-89
2022/01/15 23:12:36;;;;;;;284.70;100.40;;;-0.50;99.90;;;;;;10449598;28;20135;-89
2022/01/15 23:17:37;;;;;;;254.83;95.07;;;-0.50;99.90;;;;;;10429912;28;20029;-87
2022/01/15 23:22:39;;;;;;;278.27;89.47;;;-0.40;99.90;;;;;;10431031;28;20025;-87
2022/01/15 23:27:40;;;;;;;310.63;99.40;;;-0.30;99.90;;;;;;10430305;28;20393;-87
2022/01/15 23:32:41;;;;;;;265.33;92.90;;;-0.30;99.90;;;;;;10429981;28;20037;-89
2022/01/15 23:37:41;;;;;;;306.57;98.07;;;-0.20;99.90;;;;;;10430093;28;20043;-88
2022/01/15 23:42:43;;;;;;;273.67;94.50;;;-0.20;99.90;;;;;;10431167;28;20090;-90
2022/01/15 23:47:43;;;;;;;320.83;102.13;;;-0.10;99.90;;;;;;10430490;28;20048;-89
2022/01/15 23:52:44;;;;;;;334.40;106.57;;;-0.10;99.90;;;;;;10430930;28;20029;-89
2022/01/15 23:57:45;;;;;;;257.20;92.60;;;-0.10;99.90;;;;;;10432365;28;20033;-88
